createdAt,value
2019-01-14T00:00:54.575Z,5.25
2019-01-14T00:03:21.212Z,5.26
2019-01-14T00:05:48.221Z,5.28
2019-01-14T00:08:14.862Z,5.26
2019-01-14T00:10:42.560Z,5.26
2019-01-14T00:13:09.571Z,5.25
2019-01-14T00:15:36.620Z,5.27
2019-01-14T00:18:03.252Z,5.36
2019-01-14T00:20:30.370Z,5.34
2019-01-14T00:22:57.467Z,5.37
2019-01-14T00:25:24.476Z,5.44
2019-01-14T00:27:51.069Z,5.40
2019-01-14T00:30:17.713Z,5.44
2019-01-14T00:32:44.719Z,5.49
2019-01-14T00:35:11.773Z,5.50
2019-01-14T00:37:38.896Z,5.48
2019-01-14T00:40:05.682Z,5.46
2019-01-14T00:42:32.293Z,5.49
2019-01-14T00:44:59.323Z,5.48
2019-01-14T00:47:26.389Z,5.43
2019-01-14T00:49:53.436Z,5.41
2019-01-14T00:52:20.170Z,5.43
2019-01-14T00:54:47.131Z,5.52
2019-01-14T00:57:14.179Z,5.59
2019-01-14T00:59:41.981Z,5.55
2019-01-14T01:02:09.000Z,5.54
2019-01-14T01:04:35.957Z,5.49
2019-01-14T01:07:02.640Z,5.50
2019-01-14T01:09:29.727Z,5.47
2019-01-14T01:11:56.748Z,5.47
2019-01-14T01:14:23.799Z,5.35
2019-01-14T01:16:50.760Z,5.37
2019-01-14T01:19:17.399Z,5.32
2019-01-14T01:21:45.069Z,5.36
2019-01-14T01:24:12.125Z,5.38
2019-01-14T01:26:39.158Z,5.38
2019-01-14T01:29:06.382Z,5.35
2019-01-14T01:31:34.173Z,5.35
2019-01-14T01:34:00.812Z,5.41
2019-01-14T01:36:31.816Z,5.39
2019-01-14T01:38:56.645Z,5.34
2019-01-14T01:41:23.711Z,5.30
2019-01-14T01:43:50.652Z,5.32
2019-01-14T01:46:17.689Z,5.29
2019-01-14T01:48:44.268Z,5.24
2019-01-14T01:51:11.372Z,5.29
2019-01-14T01:53:38.431Z,5.25
2019-01-14T01:56:05.530Z,5.28
2019-01-14T01:58:32.242Z,5.23
2019-01-14T02:00:59.218Z,5.28
2019-01-14T02:03:26.204Z,5.25
2019-01-14T02:05:53.768Z,5.26
2019-01-14T02:08:20.807Z,5.28
2019-01-14T02:10:47.852Z,5.25
2019-01-14T02:13:14.939Z,5.23
2019-01-14T02:15:41.526Z,5.24
2019-01-14T02:18:08.147Z,5.20
2019-01-14T02:20:35.439Z,5.22
2019-01-14T02:23:02.407Z,5.19
2019-01-14T02:25:29.053Z,5.14
2019-01-14T02:27:56.169Z,5.15
2019-01-14T02:30:23.900Z,5.16
2019-01-14T02:32:50.470Z,5.18
2019-01-14T02:35:17.524Z,5.21
2019-01-14T02:37:45.114Z,5.14
2019-01-14T02:40:11.672Z,5.16
2019-01-14T02:42:39.207Z,5.09
2019-01-14T02:45:06.220Z,5.08
2019-01-14T02:47:33.275Z,5.08
2019-01-14T02:50:00.410Z,5.15
2019-01-14T02:52:27.214Z,5.15
2019-01-14T02:54:54.313Z,5.16
2019-01-14T02:57:21.197Z,5.18
2019-01-14T02:59:47.842Z,5.26
2019-01-14T03:02:14.424Z,5.24
2019-01-14T03:04:41.480Z,5.31
2019-01-14T03:07:08.116Z,5.28
2019-01-14T03:09:35.161Z,5.31
2019-01-14T03:12:01.812Z,5.34
2019-01-14T03:14:28.602Z,5.30
2019-01-14T03:16:55.594Z,5.35
2019-01-14T03:19:22.307Z,5.37
2019-01-14T03:21:48.885Z,5.44
2019-01-14T03:24:15.915Z,5.42
2019-01-14T03:26:42.975Z,5.40
2019-01-14T03:29:10.163Z,5.37
2019-01-14T03:31:36.790Z,5.37
2019-01-14T03:34:03.927Z,5.33
2019-01-14T03:36:30.952Z,5.33
2019-01-14T03:38:58.212Z,5.33
2019-01-14T03:41:25.861Z,5.30
2019-01-14T03:43:52.914Z,5.21
2019-01-14T03:46:19.965Z,5.17
2019-01-14T03:48:47.005Z,5.14
2019-01-14T03:51:14.132Z,5.06
2019-01-14T03:53:41.099Z,5.02
2019-01-14T03:56:08.280Z,5.05
2019-01-14T03:58:35.230Z,5.04
2019-01-14T04:01:01.813Z,5.00
2019-01-14T04:03:28.899Z,4.97
2019-01-14T04:05:55.916Z,5.00
2019-01-14T04:08:22.507Z,4.99
2019-01-14T04:10:49.618Z,5.01
2019-01-14T04:13:16.675Z,4.90
2019-01-14T04:15:43.719Z,4.91
2019-01-14T04:18:10.384Z,4.85
2019-01-14T04:20:37.000Z,4.96
2019-01-14T04:23:03.925Z,4.98
2019-01-14T04:25:31.635Z,4.94
2019-01-14T04:27:59.370Z,4.97
2019-01-14T04:30:27.062Z,4.95
2019-01-14T04:32:54.164Z,4.93
2019-01-14T04:35:20.785Z,4.96
2019-01-14T04:37:47.746Z,4.91
2019-01-14T04:40:14.425Z,4.94
2019-01-14T04:42:41.440Z,4.90
2019-01-14T04:45:08.513Z,4.88
2019-01-14T04:47:35.538Z,4.79
2019-01-14T04:50:02.111Z,4.79
2019-01-14T04:52:28.749Z,4.81
2019-01-14T04:54:55.879Z,4.76
2019-01-14T04:57:22.932Z,4.77
2019-01-14T04:59:49.500Z,4.72
2019-01-14T05:02:17.257Z,4.67
2019-01-14T05:04:45.136Z,4.57
2019-01-14T05:07:12.122Z,4.53
2019-01-14T05:09:39.073Z,4.48
2019-01-14T05:12:06.784Z,4.48
2019-01-14T05:14:33.777Z,4.48
2019-01-14T05:17:00.609Z,4.43
2019-01-14T05:19:27.703Z,4.45
2019-01-14T05:21:55.236Z,4.51
2019-01-14T05:24:22.334Z,4.53
2019-01-14T05:26:48.919Z,4.55
2019-01-14T05:29:15.973Z,4.55
2019-01-14T05:31:42.640Z,4.47
2019-01-14T05:34:09.283Z,4.50
2019-01-14T05:36:37.071Z,4.50
2019-01-14T05:39:03.829Z,4.53
2019-01-14T05:41:30.920Z,4.53
2019-01-14T05:43:58.448Z,4.31
2019-01-14T05:46:25.507Z,4.28
2019-01-14T05:48:52.568Z,4.31
2019-01-14T05:51:19.551Z,4.30
2019-01-14T05:53:46.712Z,4.23
2019-01-14T05:56:13.718Z,4.17
2019-01-14T05:58:40.773Z,4.15
2019-01-14T06:01:07.484Z,4.17
2019-01-14T06:03:34.543Z,4.16
2019-01-14T06:06:02.326Z,4.11
2019-01-14T06:08:29.337Z,4.11
2019-01-14T06:10:55.947Z,4.13
2019-01-14T06:13:23.712Z,4.09
2019-01-14T06:15:50.805Z,4.09
2019-01-14T06:18:17.917Z,4.09
2019-01-14T06:20:44.792Z,4.11
2019-01-14T06:23:12.046Z,4.14
2019-01-14T06:25:39.097Z,4.16
2019-01-14T06:28:06.879Z,4.16
2019-01-14T06:30:35.660Z,4.09
2019-01-14T06:33:03.025Z,3.91
2019-01-14T06:35:29.657Z,3.86
2019-01-14T06:37:57.181Z,3.80
2019-01-14T06:40:24.049Z,3.70
2019-01-14T06:42:51.101Z,3.73
2019-01-14T06:45:17.798Z,3.68
2019-01-14T06:47:45.560Z,3.71
2019-01-14T06:50:13.317Z,3.67
2019-01-14T06:52:40.429Z,3.69
2019-01-14T06:55:08.115Z,3.69
2019-01-14T06:57:35.822Z,3.71
2019-01-14T07:00:03.587Z,3.69
2019-01-14T07:02:31.370Z,3.76
2019-01-14T07:04:59.151Z,3.78
2019-01-14T07:07:26.184Z,3.85
2019-01-14T07:09:53.139Z,3.89
2019-01-14T07:12:19.747Z,3.88
2019-01-14T07:14:46.604Z,3.89
2019-01-14T07:17:13.874Z,3.91
2019-01-14T07:19:40.762Z,3.93
2019-01-14T07:22:07.795Z,3.88
2019-01-14T07:24:35.001Z,3.84
2019-01-14T07:27:01.644Z,3.86
2019-01-14T07:29:28.610Z,3.86
2019-01-14T07:31:55.243Z,3.85
2019-01-14T07:34:22.212Z,3.87
2019-01-14T07:36:49.231Z,3.88
2019-01-14T07:39:16.302Z,3.88
2019-01-14T07:41:43.950Z,3.81
2019-01-14T07:44:10.583Z,3.85
2019-01-14T07:46:37.164Z,3.86
2019-01-14T07:49:12.757Z,3.89
2019-01-14T07:51:39.445Z,3.91
2019-01-14T07:54:06.095Z,3.91
2019-01-14T07:56:32.696Z,3.89
2019-01-14T07:58:59.757Z,3.89
2019-01-14T08:01:26.705Z,3.87
2019-01-14T08:03:53.603Z,3.92
2019-01-14T08:06:20.441Z,3.91
2019-01-14T08:08:47.493Z,3.94
2019-01-14T08:11:14.507Z,3.96
2019-01-14T08:13:41.211Z,4.01
2019-01-14T08:16:07.865Z,3.96
2019-01-14T08:18:34.888Z,3.88
2019-01-14T08:21:01.580Z,3.90
2019-01-14T08:23:28.527Z,3.88
2019-01-14T08:25:56.587Z,3.86
2019-01-14T08:28:23.221Z,3.93
2019-01-14T08:30:49.855Z,3.97
2019-01-14T08:33:17.199Z,3.99
2019-01-14T08:35:45.171Z,3.98
2019-01-14T08:38:12.203Z,4.03
2019-01-14T08:40:40.037Z,4.04
2019-01-14T08:43:08.047Z,4.08
2019-01-14T08:45:35.223Z,4.15
2019-01-14T08:48:02.196Z,4.08
2019-01-14T08:50:29.342Z,4.19
2019-01-14T08:52:55.932Z,4.25
2019-01-14T08:55:23.695Z,4.31
2019-01-14T08:57:54.599Z,4.25
2019-01-14T09:00:21.364Z,4.29
2019-01-14T09:02:48.036Z,3.79
2019-01-14T09:05:15.218Z,3.67
2019-01-14T09:07:42.955Z,3.55
2019-01-14T09:10:10.107Z,3.57
2019-01-14T09:12:38.864Z,3.47
2019-01-14T09:15:05.901Z,3.39
2019-01-14T09:17:32.662Z,3.20
2019-01-14T09:19:59.676Z,3.15
2019-01-14T09:22:26.777Z,3.08
2019-01-14T09:24:53.761Z,3.05
2019-01-14T09:27:20.798Z,3.03
2019-01-14T09:29:47.405Z,2.89
2019-01-14T09:32:14.103Z,2.82
2019-01-14T09:34:41.254Z,2.83
2019-01-14T09:37:07.979Z,2.76
2019-01-14T09:39:34.632Z,2.73
2019-01-14T09:42:01.340Z,2.74
2019-01-14T09:44:27.912Z,2.73
2019-01-14T09:46:54.523Z,2.78
2019-01-14T09:49:21.430Z,2.87
2019-01-14T09:51:49.187Z,2.89
2019-01-14T09:54:15.770Z,2.88
2019-01-14T09:56:42.825Z,2.93
2019-01-14T09:59:09.403Z,2.88
2019-01-14T10:01:36.114Z,2.85
2019-01-14T10:04:04.002Z,2.89
2019-01-14T10:06:31.080Z,2.87
2019-01-14T10:08:58.076Z,2.85
2019-01-14T10:11:26.599Z,2.86
2019-01-14T10:13:53.612Z,2.88
2019-01-14T10:16:20.664Z,2.96
2019-01-14T10:18:48.130Z,3.04
2019-01-14T10:21:19.394Z,3.10
2019-01-14T10:23:46.343Z,3.18
2019-01-14T10:26:13.313Z,3.25
2019-01-14T10:28:40.116Z,3.20
2019-01-14T10:31:07.249Z,3.23
2019-01-14T10:33:34.389Z,3.23
2019-01-14T10:36:01.015Z,3.21
2019-01-14T10:38:27.646Z,3.20
2019-01-14T10:40:54.319Z,3.29
2019-01-14T10:43:21.549Z,3.39
2019-01-14T10:45:48.179Z,3.50
2019-01-14T10:48:14.817Z,3.56
2019-01-14T10:50:42.504Z,3.64
2019-01-14T10:53:09.459Z,3.69
2019-01-14T10:55:36.711Z,3.69
2019-01-14T10:58:03.312Z,3.70
2019-01-14T11:00:30.371Z,3.69
2019-01-14T11:02:57.066Z,3.64
2019-01-14T11:05:23.967Z,3.58
2019-01-14T11:07:50.574Z,3.58
2019-01-14T11:10:17.644Z,3.67
2019-01-14T11:12:44.588Z,3.72
2019-01-14T11:15:11.538Z,3.69
2019-01-14T11:17:38.634Z,3.64
2019-01-14T11:20:05.300Z,3.70
2019-01-14T11:22:32.364Z,3.69
2019-01-14T11:24:59.411Z,3.65
2019-01-14T11:27:26.056Z,3.67
2019-01-14T11:29:53.705Z,3.61
2019-01-14T11:32:20.798Z,3.45
2019-01-14T11:34:50.985Z,3.22
2019-01-14T11:37:17.552Z,3.08
2019-01-14T11:39:45.835Z,3.03
2019-01-14T11:42:15.565Z,3.11
2019-01-14T11:44:42.669Z,3.25
2019-01-14T11:47:09.391Z,3.36
2019-01-14T11:49:36.468Z,3.48
2019-01-14T11:52:04.416Z,3.49
2019-01-14T11:54:31.441Z,3.48
2019-01-14T11:56:58.142Z,3.52
2019-01-14T11:59:25.074Z,3.51
2019-01-14T12:01:52.144Z,3.18
2019-01-14T12:04:18.786Z,2.75
2019-01-14T12:06:45.941Z,2.37
2019-01-14T12:09:13.033Z,1.85
2019-01-14T12:11:39.985Z,1.43
2019-01-14T12:14:07.034Z,1.14
2019-01-14T12:16:37.988Z,0.87
2019-01-14T12:19:05.608Z,0.71
2019-01-14T12:21:32.608Z,0.76
2019-01-14T12:23:59.928Z,0.86
2019-01-14T12:26:26.531Z,1.01
2019-01-14T12:28:53.541Z,1.15
2019-01-14T12:31:20.456Z,1.58
2019-01-14T12:33:47.969Z,1.90
2019-01-14T12:36:14.982Z,2.32
2019-01-14T12:38:42.002Z,2.71
2019-01-14T12:41:10.049Z,2.78
2019-01-14T12:43:36.656Z,2.80
2019-01-14T12:46:03.288Z,2.73
2019-01-14T12:48:29.990Z,2.70
2019-01-14T12:50:57.548Z,2.44
2019-01-14T12:53:26.575Z,2.36
2019-01-14T12:55:53.529Z,2.09
2019-01-14T12:58:21.131Z,1.96
2019-01-14T13:00:48.153Z,1.76
2019-01-14T13:03:15.090Z,1.89
2019-01-14T13:05:41.725Z,1.88
2019-01-14T13:08:08.373Z,1.91
2019-01-14T13:10:34.954Z,2.06
2019-01-14T13:13:01.586Z,2.20
2019-01-14T13:15:28.303Z,2.22
2019-01-14T13:17:54.989Z,1.92
2019-01-14T13:20:21.958Z,1.52
2019-01-14T13:22:50.155Z,1.33
2019-01-14T13:25:17.106Z,1.11
2019-01-14T13:27:49.367Z,0.82
2019-01-14T13:30:16.364Z,0.46
2019-01-14T13:32:43.406Z,0.25
2019-01-14T13:35:10.366Z,0.12
2019-01-14T13:37:37.026Z,0.25
2019-01-14T13:40:05.346Z,0.19
2019-01-14T13:42:31.938Z,0.02
2019-01-14T13:44:58.928Z,-0.20
2019-01-14T13:47:25.590Z,-0.40
2019-01-14T13:49:52.581Z,-0.37
2019-01-14T13:52:19.727Z,-0.24
2019-01-14T13:54:46.833Z,-0.06
2019-01-14T13:57:13.823Z,0.07
2019-01-14T13:59:40.844Z,0.17
2019-01-14T14:02:07.789Z,0.26
2019-01-14T14:04:34.418Z,0.37
2019-01-14T14:07:01.410Z,0.41
2019-01-14T14:09:41.180Z,0.53
2019-01-14T14:12:05.338Z,0.65
2019-01-14T14:14:32.280Z,0.69
2019-01-14T14:16:58.864Z,0.72
2019-01-14T14:19:25.545Z,0.75
2019-01-14T14:21:52.462Z,0.77
2019-01-14T14:24:19.410Z,0.76
2019-01-14T14:26:46.406Z,0.73
2019-01-14T14:29:14.467Z,0.71
2019-01-14T14:31:41.288Z,0.68
2019-01-14T14:34:08.322Z,0.67
2019-01-14T14:36:35.285Z,0.66
2019-01-14T14:39:02.207Z,0.71
2019-01-14T14:41:29.130Z,0.75
2019-01-14T14:43:56.143Z,0.75
2019-01-14T14:46:23.239Z,0.76
2019-01-14T14:48:50.457Z,0.78
2019-01-14T14:51:17.394Z,0.85
2019-01-14T14:53:44.033Z,0.84
2019-01-14T14:56:11.063Z,0.77
2019-01-14T14:58:38.081Z,0.62
2019-01-14T15:01:04.717Z,0.51
2019-01-14T15:03:34.535Z,0.23
2019-01-14T15:06:01.180Z,-0.15
2019-01-14T15:08:28.169Z,-0.54
2019-01-14T15:10:55.188Z,-0.70
2019-01-14T15:13:22.137Z,-0.82
2019-01-14T15:15:48.715Z,-0.86
2019-01-14T15:18:15.736Z,-0.88
2019-01-14T15:20:42.733Z,-0.88
2019-01-14T15:23:09.709Z,-0.81
2019-01-14T15:25:36.356Z,-0.86
2019-01-14T15:28:05.667Z,-0.76
2019-01-14T15:30:32.693Z,-0.75
2019-01-14T15:32:59.340Z,-0.71
2019-01-14T15:35:26.297Z,-0.72
2019-01-14T15:37:52.880Z,-0.68
2019-01-14T15:40:19.579Z,-0.65
2019-01-14T15:42:49.004Z,-0.60
2019-01-14T15:45:19.794Z,-0.67
2019-01-14T15:48:00.229Z,-0.58
2019-01-14T15:50:38.391Z,-0.54
2019-01-14T15:53:15.755Z,-0.53
2019-01-14T15:55:48.312Z,-0.42
2019-01-14T16:01:04.043Z,-0.35
2019-01-14T16:06:16.715Z,-0.39
2019-01-14T16:08:46.532Z,-0.37
2019-01-14T16:11:13.483Z,-0.34
2019-01-14T16:13:49.543Z,-0.32
2019-01-14T16:16:16.717Z,-0.32
2019-01-14T16:18:43.802Z,-0.34
2019-01-14T16:21:10.921Z,-0.36
2019-01-14T16:26:03.467Z,-0.34
2019-01-14T16:28:30.516Z,-0.34
2019-01-14T16:30:57.685Z,-0.32
2019-01-14T16:33:24.753Z,-0.30
2019-01-14T16:35:51.336Z,-0.30
2019-01-14T16:38:18.013Z,-0.30
2019-01-14T16:40:45.042Z,-0.30
2019-01-14T16:43:11.694Z,-0.32
2019-01-14T16:45:38.827Z,-0.32
2019-01-14T16:48:05.436Z,-0.26
2019-01-14T16:50:32.486Z,-0.24
2019-01-14T16:52:59.599Z,-0.24
2019-01-14T16:55:26.613Z,-0.19
2019-01-14T16:57:53.307Z,-0.23
2019-01-14T17:00:20.913Z,-0.28
2019-01-14T17:02:48.613Z,-0.24
2019-01-14T17:05:16.440Z,-0.25
2019-01-14T17:07:45.210Z,-0.33
2019-01-14T17:10:12.341Z,-0.34
2019-01-14T17:12:39.483Z,-0.32
2019-01-14T17:15:06.061Z,-0.37
2019-01-14T17:17:33.288Z,-0.38
2019-01-14T17:20:01.020Z,-0.40
2019-01-14T17:22:29.761Z,-0.42
2019-01-14T17:24:56.008Z,-0.45
2019-01-14T17:27:23.048Z,-0.45
2019-01-14T17:29:49.661Z,-0.49
2019-01-14T17:32:16.341Z,-0.52
2019-01-14T17:34:43.004Z,-0.50
2019-01-14T17:37:09.803Z,-0.52
2019-01-14T17:39:36.505Z,-0.52
2019-01-14T17:42:03.345Z,-0.53
2019-01-14T17:44:30.431Z,-0.55
2019-01-14T17:46:57.517Z,-0.56
2019-01-14T17:49:24.512Z,-0.58
2019-01-14T17:51:51.573Z,-0.58
2019-01-14T17:54:18.687Z,-0.57
2019-01-14T17:56:45.983Z,-0.58
2019-01-14T17:59:12.669Z,-0.61
2019-01-14T18:01:40.840Z,-0.63
2019-01-14T18:04:08.612Z,-0.69
2019-01-14T18:06:35.215Z,-0.69
2019-01-14T18:09:01.896Z,-0.76
2019-01-14T18:11:29.067Z,-0.73
2019-01-14T18:13:56.161Z,-0.80
2019-01-14T18:16:23.228Z,-1.07
2019-01-14T18:18:49.927Z,-1.11
2019-01-14T18:21:16.735Z,-1.09
2019-01-14T18:23:43.875Z,-1.03
2019-01-14T18:26:10.537Z,-1.09
2019-01-14T18:28:37.758Z,-1.18
2019-01-14T18:31:04.796Z,-1.24
2019-01-14T18:33:31.939Z,-1.31
2019-01-14T18:35:59.628Z,-1.28
2019-01-14T18:38:26.814Z,-1.27
2019-01-14T18:40:53.975Z,-1.22
2019-01-14T18:43:23.451Z,-1.31
2019-01-14T18:45:50.455Z,-1.28
2019-01-14T18:48:17.575Z,-1.29
2019-01-14T18:50:44.272Z,-1.24
2019-01-14T18:53:11.437Z,-1.19
2019-01-14T18:55:38.228Z,-1.18
2019-01-14T18:58:05.306Z,-1.23
2019-01-14T19:00:31.967Z,-1.24
2019-01-14T19:02:59.633Z,-1.27
2019-01-14T19:05:26.327Z,-1.26
2019-01-14T19:07:54.188Z,-1.21
2019-01-14T19:10:21.881Z,-1.21
2019-01-14T19:12:49.738Z,-1.23
2019-01-14T19:15:16.863Z,-1.18
2019-01-14T19:17:43.919Z,-1.22
2019-01-14T19:20:10.982Z,-1.24
2019-01-14T19:22:38.478Z,-1.29
2019-01-14T19:25:05.580Z,-1.33
2019-01-14T19:27:32.279Z,-1.28
2019-01-14T19:29:59.063Z,-1.24
2019-01-14T19:32:25.708Z,-1.16
2019-01-14T19:34:52.895Z,-1.11
2019-01-14T19:37:19.739Z,-1.09
2019-01-14T19:39:46.821Z,-1.10
2019-01-14T19:42:13.982Z,-1.09
2019-01-14T19:44:41.191Z,-1.10
2019-01-14T19:47:08.393Z,-1.15
2019-01-14T19:49:36.001Z,-1.15
2019-01-14T19:52:03.189Z,-1.27
2019-01-14T19:54:30.349Z,-1.21
2019-01-14T19:56:57.651Z,-1.17
2019-01-14T19:59:24.851Z,-1.19
2019-01-14T20:01:54.514Z,-1.22
2019-01-14T20:04:21.928Z,-1.30
2019-01-14T20:06:48.591Z,-1.33
2019-01-14T20:09:15.740Z,-1.33
2019-01-14T20:11:43.541Z,-1.24
2019-01-14T20:14:10.261Z,-1.20
2019-01-14T20:16:37.466Z,-1.18
2019-01-14T20:19:04.459Z,-1.13
2019-01-14T20:21:31.545Z,-1.09
2019-01-14T20:23:58.717Z,-1.15
2019-01-14T20:26:25.844Z,-1.14
2019-01-14T20:28:53.648Z,-1.12
2019-01-14T20:31:20.733Z,-1.13
2019-01-14T20:33:47.921Z,-1.11
2019-01-14T20:36:14.943Z,-1.08
2019-01-14T20:38:42.109Z,-1.09
2019-01-14T20:41:08.783Z,-1.10
2019-01-14T20:43:35.844Z,-1.09
2019-01-14T20:46:03.601Z,-1.05
2019-01-14T20:48:31.379Z,-1.02
2019-01-14T20:50:59.112Z,-1.06
2019-01-14T20:53:26.311Z,-1.05
2019-01-14T20:55:54.404Z,-1.07
2019-01-14T20:58:22.304Z,-1.06
2019-01-14T21:00:49.443Z,-1.01
2019-01-14T21:03:17.170Z,-1.06
2019-01-14T21:05:44.346Z,-1.03
2019-01-14T21:08:12.129Z,-1.00
2019-01-14T21:10:39.920Z,-0.98
2019-01-14T21:13:08.263Z,-0.96
2019-01-14T21:15:36.037Z,-0.95
2019-01-14T21:18:03.826Z,-0.94
2019-01-14T21:20:31.289Z,-0.99
2019-01-14T21:22:58.436Z,-1.00
2019-01-14T21:25:26.217Z,-0.95
2019-01-14T21:27:53.398Z,-0.94
2019-01-14T21:30:21.115Z,-0.96
2019-01-14T21:32:48.983Z,-0.94
2019-01-14T21:35:16.027Z,-0.93
2019-01-14T21:37:43.819Z,-0.97
2019-01-14T21:40:10.980Z,-0.94
2019-01-14T21:42:38.012Z,-0.93
2019-01-14T21:45:05.091Z,-0.93
2019-01-14T21:47:32.971Z,-0.88
2019-01-14T21:50:00.661Z,-0.87
2019-01-14T21:52:28.370Z,-0.91
2019-01-14T21:54:56.144Z,-0.85
2019-01-14T21:57:23.853Z,-0.82
2019-01-14T21:59:50.703Z,-0.85
2019-01-14T22:02:18.609Z,-0.84
2019-01-14T22:04:46.341Z,-0.77
2019-01-14T22:07:13.461Z,-0.76
2019-01-14T22:09:41.373Z,-0.71
2019-01-14T22:12:08.331Z,-0.68
2019-01-14T22:14:36.059Z,-0.66
2019-01-14T22:17:03.159Z,-0.68
2019-01-14T22:19:30.856Z,-0.63
2019-01-14T22:21:58.623Z,-0.60
2019-01-14T22:24:26.339Z,-0.56
2019-01-14T22:26:54.070Z,-0.55
2019-01-14T22:29:21.116Z,-0.52
2019-01-14T22:31:48.250Z,-0.48
2019-01-14T22:34:16.028Z,-0.46
2019-01-14T22:36:43.810Z,-0.42
2019-01-14T22:39:11.143Z,-0.40
2019-01-14T22:41:38.229Z,-0.33
2019-01-14T22:44:05.384Z,-0.31
2019-01-14T22:46:32.550Z,-0.30
2019-01-14T22:48:59.630Z,-0.25
2019-01-14T22:51:27.381Z,-0.25
2019-01-14T22:53:55.023Z,-0.18
2019-01-14T22:56:22.671Z,-0.21
2019-01-14T22:58:50.404Z,-0.24
2019-01-14T23:01:17.585Z,-0.21
2019-01-14T23:03:44.702Z,-0.18
2019-01-14T23:06:12.414Z,-0.13
2019-01-14T23:08:40.178Z,-0.09
2019-01-14T23:11:07.278Z,-0.03
2019-01-14T23:13:35.655Z,-0.03
2019-01-14T23:16:02.957Z,-0.02
2019-01-14T23:18:30.718Z,0.03
2019-01-14T23:20:58.572Z,0.04
2019-01-14T23:23:25.635Z,0.02
2019-01-14T23:25:52.633Z,0.06
2019-01-14T23:28:20.450Z,0.10
2019-01-14T23:30:47.434Z,0.12
2019-01-14T23:33:15.158Z,0.11
2019-01-14T23:35:42.260Z,0.12
2019-01-14T23:38:09.307Z,0.05
2019-01-14T23:40:37.032Z,0.06
2019-01-14T23:43:04.119Z,0.09
2019-01-14T23:45:31.174Z,0.16
2019-01-14T23:47:58.234Z,0.13
2019-01-14T23:50:25.370Z,0.09
2019-01-14T23:52:53.074Z,0.03
2019-01-14T23:55:20.728Z,0.10
2019-01-14T23:57:48.501Z,0.13
